Hilldale, Tennessee
Current Conditions -  °F | °C
As of 2:30 PM on Thursday 29 Jan 2015 (Local Time) from KCKV Reporting Station
Broken Clouds Broken Clouds  
Wind Chill: 41°   Ceiling: 2900
Heat Index: 49°   Visibility: 10mi
Dew Point: 37°   Wind: 25mph
Humidity: 64%   Direction: 330°NNW
Pressure: 30.09"   Gusts: 30mph
Location:  36.4964°N, 87.234°W
Report Text: KCKV 292030Z AUTO 33022G26KT 10SM BKN029 BKN042 09/03 A3009 RMK AO2 PK WND 33027/2000 T00940028
Loading
Personal Weather Stations






























Interactive Weather Map New forecast layout! Learn more

10-Day Weather Forecast

Advertisements
Track Severe Weather on mobile